sensor_id;sensor_type;location;lat;lon;timestamp;temperature;humidity
19106;DHT22;9685;54.338;18.672;2024-01-30T00:01:23;3.20;99.90
19106;DHT22;9685;54.338;18.672;2024-01-30T00:03:50;3.20;99.90
19106;DHT22;9685;54.338;18.672;2024-01-30T00:06:18;3.10;99.90
19106;DHT22;9685;54.338;18.672;2024-01-30T00:08:47;3.20;99.90
19106;DHT22;9685;54.338;18.672;2024-01-30T00:11:14;3.20;99.90
19106;DHT22;9685;54.338;18.672;2024-01-30T00:13:41;3.20;99.90
19106;DHT22;9685;54.338;18.672;2024-01-30T00:16:08;3.20;99.90
19106;DHT22;9685;54.338;18.672;2024-01-30T00:18:36;3.20;99.90
19106;DHT22;9685;54.338;18.672;2024-01-30T00:21:02;3.20;99.90
19106;DHT22;9685;54.338;18.672;2024-01-30T00:23:29;3.20;99.90
19106;DHT22;9685;54.338;18.672;2024-01-30T00:25:58;3.20;99.90
19106;DHT22;9685;54.338;18.672;2024-01-30T00:28:24;3.10;99.90
19106;DHT22;9685;54.338;18.672;2024-01-30T00:30:51;3.10;99.90
19106;DHT22;9685;54.338;18.672;2024-01-30T00:33:18;3.10;99.90
19106;DHT22;9685;54.338;18.672;2024-01-30T00:35:45;3.10;99.90
19106;DHT22;9685;54.338;18.672;2024-01-30T00:38:12;3.10;99.90
19106;DHT22;9685;54.338;18.672;2024-01-30T00:40:39;3.10;99.90
19106;DHT22;9685;54.338;18.672;2024-01-30T00:43:07;3.10;99.90
19106;DHT22;9685;54.338;18.672;2024-01-30T00:45:34;3.00;99.90
19106;DHT22;9685;54.338;18.672;2024-01-30T00:48:01;3.00;99.90
19106;DHT22;9685;54.338;18.672;2024-01-30T00:50:29;3.00;99.90
19106;DHT22;9685;54.338;18.672;2024-01-30T00:52:56;3.00;99.90
19106;DHT22;9685;54.338;18.672;2024-01-30T00:55:23;3.10;99.90
19106;DHT22;9685;54.338;18.672;2024-01-30T00:57:50;3.00;99.90
19106;DHT22;9685;54.338;18.672;2024-01-30T01:00:18;2.90;99.90
19106;DHT22;9685;54.338;18.672;2024-01-30T01:02:46;3.00;99.90
19106;DHT22;9685;54.338;18.672;2024-01-30T01:05:13;3.00;99.90
19106;DHT22;9685;54.338;18.672;2024-01-30T01:07:40;3.00;99.90
19106;DHT22;9685;54.338;18.672;2024-01-30T01:10:08;3.00;99.90
19106;DHT22;9685;54.338;18.672;2024-01-30T01:12:37;3.00;99.90
19106;DHT22;9685;54.338;18.672;2024-01-30T01:15:04;2.90;99.90
19106;DHT22;9685;54.338;18.672;2024-01-30T01:17:32;2.90;99.90
19106;DHT22;9685;54.338;18.672;2024-01-30T01:19:59;2.90;99.90
19106;DHT22;9685;54.338;18.672;2024-01-30T01:22:26;2.90;99.90
19106;DHT22;9685;54.338;18.672;2024-01-30T01:24:53;2.90;99.90
19106;DHT22;9685;54.338;18.672;2024-01-30T01:27:20;2.90;99.90
19106;DHT22;9685;54.338;18.672;2024-01-30T01:29:47;2.90;99.90
19106;DHT22;9685;54.338;18.672;2024-01-30T01:32:14;2.80;99.90
19106;DHT22;9685;54.338;18.672;2024-01-30T01:34:43;2.80;99.90
19106;DHT22;9685;54.338;18.672;2024-01-30T01:37:10;2.80;99.90
19106;DHT22;9685;54.338;18.672;2024-01-30T01:39:37;2.80;99.90
19106;DHT22;9685;54.338;18.672;2024-01-30T01:42:04;2.70;99.90
19106;DHT22;9685;54.338;18.672;2024-01-30T01:44:31;2.70;99.90
19106;DHT22;9685;54.338;18.672;2024-01-30T01:52:28;2.60;99.90
19106;DHT22;9685;54.338;18.672;2024-01-30T01:54:55;2.60;99.90
19106;DHT22;9685;54.338;18.672;2024-01-30T01:57:22;2.60;99.90
19106;DHT22;9685;54.338;18.672;2024-01-30T01:59:49;2.50;99.90
19106;DHT22;9685;54.338;18.672;2024-01-30T02:02:17;2.60;99.90
19106;DHT22;9685;54.338;18.672;2024-01-30T02:04:46;2.50;99.90
19106;DHT22;9685;54.338;18.672;2024-01-30T02:07:13;2.60;99.90
19106;DHT22;9685;54.338;18.672;2024-01-30T02:09:41;2.50;99.90
19106;DHT22;9685;54.338;18.672;2024-01-30T02:12:08;2.50;99.90
19106;DHT22;9685;54.338;18.672;2024-01-30T02:14:44;2.40;99.90
19106;DHT22;9685;54.338;18.672;2024-01-30T02:17:11;2.40;99.90
19106;DHT22;9685;54.338;18.672;2024-01-30T02:19:38;2.50;99.90
19106;DHT22;9685;54.338;18.672;2024-01-30T02:22:07;2.30;99.90
19106;DHT22;9685;54.338;18.672;2024-01-30T02:24:34;2.40;99.90
19106;DHT22;9685;54.338;18.672;2024-01-30T02:27:01;2.30;99.90
19106;DHT22;9685;54.338;18.672;2024-01-30T02:29:28;2.30;99.90
19106;DHT22;9685;54.338;18.672;2024-01-30T02:31:55;2.30;99.90
19106;DHT22;9685;54.338;18.672;2024-01-30T02:34:22;2.30;99.90
19106;DHT22;9685;54.338;18.672;2024-01-30T02:36:48;2.30;99.90
19106;DHT22;9685;54.338;18.672;2024-01-30T02:39:17;2.30;99.90
19106;DHT22;9685;54.338;18.672;2024-01-30T02:41:44;2.30;99.90
19106;DHT22;9685;54.338;18.672;2024-01-30T02:44:10;2.30;99.90
19106;DHT22;9685;54.338;18.672;2024-01-30T02:46:37;2.30;99.90
19106;DHT22;9685;54.338;18.672;2024-01-30T02:49:04;2.30;99.90
19106;DHT22;9685;54.338;18.672;2024-01-30T02:51:31;2.20;99.90
19106;DHT22;9685;54.338;18.672;2024-01-30T02:53:58;2.30;99.90
19106;DHT22;9685;54.338;18.672;2024-01-30T02:56:26;2.20;99.90
19106;DHT22;9685;54.338;18.672;2024-01-30T02:58:53;2.20;99.90
19106;DHT22;9685;54.338;18.672;2024-01-30T03:01:20;2.20;99.90
19106;DHT22;9685;54.338;18.672;2024-01-30T03:03:47;2.20;99.90
19106;DHT22;9685;54.338;18.672;2024-01-30T03:06:14;2.20;99.90
19106;DHT22;9685;54.338;18.672;2024-01-30T03:08:43;2.20;99.90
19106;DHT22;9685;54.338;18.672;2024-01-30T03:11:10;2.20;99.90
19106;DHT22;9685;54.338;18.672;2024-01-30T03:13:38;2.20;99.90
19106;DHT22;9685;54.338;18.672;2024-01-30T03:16:06;2.20;99.90
19106;DHT22;9685;54.338;18.672;2024-01-30T03:18:34;2.10;99.90
19106;DHT22;9685;54.338;18.672;2024-01-30T03:21:01;2.10;99.90
19106;DHT22;9685;54.338;18.672;2024-01-30T03:23:28;2.10;99.90
19106;DHT22;9685;54.338;18.672;2024-01-30T03:25:55;2.10;99.90
19106;DHT22;9685;54.338;18.672;2024-01-30T03:28:22;2.10;99.90
19106;DHT22;9685;54.338;18.672;2024-01-30T03:30:50;2.10;99.90
19106;DHT22;9685;54.338;18.672;2024-01-30T03:33:17;2.10;99.90
19106;DHT22;9685;54.338;18.672;2024-01-30T03:35:44;2.10;99.90
19106;DHT22;9685;54.338;18.672;2024-01-30T03:38:11;2.10;99.90
19106;DHT22;9685;54.338;18.672;2024-01-30T03:40:38;2.10;99.90
19106;DHT22;9685;54.338;18.672;2024-01-30T03:43:04;2.10;99.90
19106;DHT22;9685;54.338;18.672;2024-01-30T03:45:31;2.00;99.90
19106;DHT22;9685;54.338;18.672;2024-01-30T03:48:00;2.00;99.90
19106;DHT22;9685;54.338;18.672;2024-01-30T03:50:26;2.00;99.90
19106;DHT22;9685;54.338;18.672;2024-01-30T03:52:54;2.00;99.90
19106;DHT22;9685;54.338;18.672;2024-01-30T03:55:21;2.00;99.90
19106;DHT22;9685;54.338;18.672;2024-01-30T03:57:48;2.00;99.90
19106;DHT22;9685;54.338;18.672;2024-01-30T04:00:15;1.90;99.90
19106;DHT22;9685;54.338;18.672;2024-01-30T04:02:42;1.90;99.90
19106;DHT22;9685;54.338;18.672;2024-01-30T04:05:10;1.90;99.90
19106;DHT22;9685;54.338;18.672;2024-01-30T04:07:37;1.80;99.90
19106;DHT22;9685;54.338;18.672;2024-01-30T04:10:05;1.80;99.90
19106;DHT22;9685;54.338;18.672;2024-01-30T04:12:32;1.80;99.90
19106;DHT22;9685;54.338;18.672;2024-01-30T04:14:59;1.80;99.90
19106;DHT22;9685;54.338;18.672;2024-01-30T04:17:26;1.80;99.90
19106;DHT22;9685;54.338;18.672;2024-01-30T04:19:54;1.80;99.90
19106;DHT22;9685;54.338;18.672;2024-01-30T04:22:22;1.70;99.90
19106;DHT22;9685;54.338;18.672;2024-01-30T04:24:49;1.70;99.90
19106;DHT22;9685;54.338;18.672;2024-01-30T04:27:16;1.70;99.90
19106;DHT22;9685;54.338;18.672;2024-01-30T04:29:43;1.70;99.90
19106;DHT22;9685;54.338;18.672;2024-01-30T04:32:10;1.70;99.90
19106;DHT22;9685;54.338;18.672;2024-01-30T04:34:37;1.70;99.90
19106;DHT22;9685;54.338;18.672;2024-01-30T04:37:04;1.70;99.90
19106;DHT22;9685;54.338;18.672;2024-01-30T04:39:33;1.70;99.90
19106;DHT22;9685;54.338;18.672;2024-01-30T04:41:59;1.70;99.90
19106;DHT22;9685;54.338;18.672;2024-01-30T04:44:26;1.70;99.90
19106;DHT22;9685;54.338;18.672;2024-01-30T04:46:53;1.70;99.90
19106;DHT22;9685;54.338;18.672;2024-01-30T04:49:24;1.70;99.90
19106;DHT22;9685;54.338;18.672;2024-01-30T04:51:51;1.70;99.90
19106;DHT22;9685;54.338;18.672;2024-01-30T04:54:18;1.70;99.90
19106;DHT22;9685;54.338;18.672;2024-01-30T04:56:46;1.60;99.90
19106;DHT22;9685;54.338;18.672;2024-01-30T04:59:13;1.70;99.90
19106;DHT22;9685;54.338;18.672;2024-01-30T05:01:40;1.70;99.90
19106;DHT22;9685;54.338;18.672;2024-01-30T05:04:07;1.60;99.90
19106;DHT22;9685;54.338;18.672;2024-01-30T05:06:34;1.60;99.90
19106;DHT22;9685;54.338;18.672;2024-01-30T05:09:01;1.60;99.90
19106;DHT22;9685;54.338;18.672;2024-01-30T05:11:29;1.50;99.90
19106;DHT22;9685;54.338;18.672;2024-01-30T05:13:57;1.50;99.90
19106;DHT22;9685;54.338;18.672;2024-01-30T05:16:24;1.80;99.90
19106;DHT22;9685;54.338;18.672;2024-01-30T05:18:51;1.50;99.90
19106;DHT22;9685;54.338;18.672;2024-01-30T05:21:18;1.60;99.90
19106;DHT22;9685;54.338;18.672;2024-01-30T05:23:45;1.50;99.90
19106;DHT22;9685;54.338;18.672;2024-01-30T05:26:11;1.60;99.90
19106;DHT22;9685;54.338;18.672;2024-01-30T05:28:38;1.60;99.90
19106;DHT22;9685;54.338;18.672;2024-01-30T05:31:07;1.60;99.90
19106;DHT22;9685;54.338;18.672;2024-01-30T05:33:34;1.70;99.90
19106;DHT22;9685;54.338;18.672;2024-01-30T05:36:01;1.60;99.90
19106;DHT22;9685;54.338;18.672;2024-01-30T05:38:28;1.60;99.90
19106;DHT22;9685;54.338;18.672;2024-01-30T05:40:55;1.60;99.90
19106;DHT22;9685;54.338;18.672;2024-01-30T05:43:23;1.70;99.90
19106;DHT22;9685;54.338;18.672;2024-01-30T05:45:51;1.70;99.90
19106;DHT22;9685;54.338;18.672;2024-01-30T05:48:19;1.70;99.90
19106;DHT22;9685;54.338;18.672;2024-01-30T05:50:46;1.70;99.90
19106;DHT22;9685;54.338;18.672;2024-01-30T05:53:13;1.70;99.90
19106;DHT22;9685;54.338;18.672;2024-01-30T05:55:40;1.70;99.90
19106;DHT22;9685;54.338;18.672;2024-01-30T05:58:07;1.70;99.90
19106;DHT22;9685;54.338;18.672;2024-01-30T06:00:34;1.70;99.90
19106;DHT22;9685;54.338;18.672;2024-01-30T06:03:01;1.70;99.90
19106;DHT22;9685;54.338;18.672;2024-01-30T06:05:29;1.70;99.90
19106;DHT22;9685;54.338;18.672;2024-01-30T06:07:56;1.70;99.90
19106;DHT22;9685;54.338;18.672;2024-01-30T06:10:22;1.70;99.90
19106;DHT22;9685;54.338;18.672;2024-01-30T06:12:49;1.70;99.90
19106;DHT22;9685;54.338;18.672;2024-01-30T06:15:16;1.60;99.90
19106;DHT22;9685;54.338;18.672;2024-01-30T06:17:43;1.60;99.90
19106;DHT22;9685;54.338;18.672;2024-01-30T06:20:10;1.60;99.90
19106;DHT22;9685;54.338;18.672;2024-01-30T06:22:38;1.60;99.90
19106;DHT22;9685;54.338;18.672;2024-01-30T06:25:06;1.60;99.90
19106;DHT22;9685;54.338;18.672;2024-01-30T06:27:33;1.60;99.90
19106;DHT22;9685;54.338;18.672;2024-01-30T06:30:00;1.60;99.90
19106;DHT22;9685;54.338;18.672;2024-01-30T06:32:27;1.60;99.90
19106;DHT22;9685;54.338;18.672;2024-01-30T06:34:54;1.60;99.90
19106;DHT22;9685;54.338;18.672;2024-01-30T06:37:21;1.60;99.90
19106;DHT22;9685;54.338;18.672;2024-01-30T06:39:49;1.60;99.90
19106;DHT22;9685;54.338;18.672;2024-01-30T06:42:17;1.60;99.90
19106;DHT22;9685;54.338;18.672;2024-01-30T06:44:44;1.60;99.90
19106;DHT22;9685;54.338;18.672;2024-01-30T06:47:11;1.50;99.90
19106;DHT22;9685;54.338;18.672;2024-01-30T06:49:38;1.60;99.90
19106;DHT22;9685;54.338;18.672;2024-01-30T06:52:07;1.60;99.90
19106;DHT22;9685;54.338;18.672;2024-01-30T06:54:34;1.60;99.90
19106;DHT22;9685;54.338;18.672;2024-01-30T06:57:03;1.60;99.90
19106;DHT22;9685;54.338;18.672;2024-01-30T06:59:32;1.60;99.90
19106;DHT22;9685;54.338;18.672;2024-01-30T07:01:59;1.60;99.90
19106;DHT22;9685;54.338;18.672;2024-01-30T07:04:26;1.60;99.90
19106;DHT22;9685;54.338;18.672;2024-01-30T07:06:53;1.60;99.90
19106;DHT22;9685;54.338;18.672;2024-01-30T07:09:20;1.60;99.90
19106;DHT22;9685;54.338;18.672;2024-01-30T07:11:48;1.60;99.90
19106;DHT22;9685;54.338;18.672;2024-01-30T07:14:17;1.70;99.90
19106;DHT22;9685;54.338;18.672;2024-01-30T07:16:44;1.50;99.90
19106;DHT22;9685;54.338;18.672;2024-01-30T07:19:13;1.60;99.90
19106;DHT22;9685;54.338;18.672;2024-01-30T07:21:40;1.60;99.90
19106;DHT22;9685;54.338;18.672;2024-01-30T07:24:07;1.70;99.90
19106;DHT22;9685;54.338;18.672;2024-01-30T07:26:34;1.70;99.90
19106;DHT22;9685;54.338;18.672;2024-01-30T07:29:01;1.70;99.90
19106;DHT22;9685;54.338;18.672;2024-01-30T07:31:30;1.80;99.90
19106;DHT22;9685;54.338;18.672;2024-01-30T07:33:57;1.80;99.90
19106;DHT22;9685;54.338;18.672;2024-01-30T07:36:23;1.80;99.90
19106;DHT22;9685;54.338;18.672;2024-01-30T07:38:51;1.80;99.90
19106;DHT22;9685;54.338;18.672;2024-01-30T07:41:19;1.90;99.90
19106;DHT22;9685;54.338;18.672;2024-01-30T07:43:46;1.90;99.90
19106;DHT22;9685;54.338;18.672;2024-01-30T07:46:13;2.00;99.90
19106;DHT22;9685;54.338;18.672;2024-01-30T07:48:41;2.00;99.90
19106;DHT22;9685;54.338;18.672;2024-01-30T07:51:08;2.10;99.90
19106;DHT22;9685;54.338;18.672;2024-01-30T07:53:35;2.10;99.90
19106;DHT22;9685;54.338;18.672;2024-01-30T07:56:02;2.10;99.90
19106;DHT22;9685;54.338;18.672;2024-01-30T07:58:29;2.20;99.90
19106;DHT22;9685;54.338;18.672;2024-01-30T08:00:56;2.30;99.90
19106;DHT22;9685;54.338;18.672;2024-01-30T08:03:24;2.30;99.90
19106;DHT22;9685;54.338;18.672;2024-01-30T08:05:52;2.40;99.90
19106;DHT22;9685;54.338;18.672;2024-01-30T08:08:19;2.40;99.90
19106;DHT22;9685;54.338;18.672;2024-01-30T08:10:46;2.50;99.90
19106;DHT22;9685;54.338;18.672;2024-01-30T08:13:13;2.50;99.90
19106;DHT22;9685;54.338;18.672;2024-01-30T08:15:40;2.60;99.90
19106;DHT22;9685;54.338;18.672;2024-01-30T08:18:07;2.70;99.90
19106;DHT22;9685;54.338;18.672;2024-01-30T08:20:34;2.70;99.90
19106;DHT22;9685;54.338;18.672;2024-01-30T08:23:02;2.80;99.90
19106;DHT22;9685;54.338;18.672;2024-01-30T08:25:29;2.90;99.90
19106;DHT22;9685;54.338;18.672;2024-01-30T08:27:56;2.90;99.90
19106;DHT22;9685;54.338;18.672;2024-01-30T08:30:23;3.00;99.90
19106;DHT22;9685;54.338;18.672;2024-01-30T08:32:50;3.10;99.90
19106;DHT22;9685;54.338;18.672;2024-01-30T08:35:17;3.10;99.90
19106;DHT22;9685;54.338;18.672;2024-01-30T08:37:44;3.20;99.90
19106;DHT22;9685;54.338;18.672;2024-01-30T08:40:12;3.20;99.90
19106;DHT22;9685;54.338;18.672;2024-01-30T08:42:39;3.20;99.90
19106;DHT22;9685;54.338;18.672;2024-01-30T08:45:07;3.30;99.90
19106;DHT22;9685;54.338;18.672;2024-01-30T08:47:34;3.40;99.90
19106;DHT22;9685;54.338;18.672;2024-01-30T08:50:01;3.50;99.90
19106;DHT22;9685;54.338;18.672;2024-01-30T08:52:28;3.60;99.90
19106;DHT22;9685;54.338;18.672;2024-01-30T08:54:55;3.60;99.90
19106;DHT22;9685;54.338;18.672;2024-01-30T08:57:23;3.80;99.90
19106;DHT22;9685;54.338;18.672;2024-01-30T08:59:53;3.80;99.90
19106;DHT22;9685;54.338;18.672;2024-01-30T09:02:20;4.00;99.90
19106;DHT22;9685;54.338;18.672;2024-01-30T09:04:47;4.00;99.90
19106;DHT22;9685;54.338;18.672;2024-01-30T09:07:14;4.10;99.90
19106;DHT22;9685;54.338;18.672;2024-01-30T09:09:41;4.20;99.90
19106;DHT22;9685;54.338;18.672;2024-01-30T09:12:10;4.40;99.90
19106;DHT22;9685;54.338;18.672;2024-01-30T09:14:39;4.50;99.90
19106;DHT22;9685;54.338;18.672;2024-01-30T09:17:06;4.50;99.90
19106;DHT22;9685;54.338;18.672;2024-01-30T09:19:33;4.60;99.90
19106;DHT22;9685;54.338;18.672;2024-01-30T09:22:00;4.60;99.90
19106;DHT22;9685;54.338;18.672;2024-01-30T09:24:27;4.70;99.90
19106;DHT22;9685;54.338;18.672;2024-01-30T09:26:54;4.60;99.90
19106;DHT22;9685;54.338;18.672;2024-01-30T09:29:21;4.70;99.90
19106;DHT22;9685;54.338;18.672;2024-01-30T09:31:49;4.70;99.90
19106;DHT22;9685;54.338;18.672;2024-01-30T09:34:16;4.80;99.90
19106;DHT22;9685;54.338;18.672;2024-01-30T09:36:43;4.90;99.90
19106;DHT22;9685;54.338;18.672;2024-01-30T09:39:10;4.90;99.90
19106;DHT22;9685;54.338;18.672;2024-01-30T09:41:45;4.90;99.90
19106;DHT22;9685;54.338;18.672;2024-01-30T09:44:16;5.00;99.90
19106;DHT22;9685;54.338;18.672;2024-01-30T09:46:43;5.10;99.90
19106;DHT22;9685;54.338;18.672;2024-01-30T09:49:14;5.20;99.90
19106;DHT22;9685;54.338;18.672;2024-01-30T09:51:44;5.30;99.90
19106;DHT22;9685;54.338;18.672;2024-01-30T09:54:13;5.40;99.90
19106;DHT22;9685;54.338;18.672;2024-01-30T09:56:40;5.40;99.90
19106;DHT22;9685;54.338;18.672;2024-01-30T09:59:07;5.50;99.90
19106;DHT22;9685;54.338;18.672;2024-01-30T10:01:35;5.60;99.90
19106;DHT22;9685;54.338;18.672;2024-01-30T10:04:04;5.70;99.90
19106;DHT22;9685;54.338;18.672;2024-01-30T10:06:32;5.80;99.90
19106;DHT22;9685;54.338;18.672;2024-01-30T10:08:59;5.90;99.90
19106;DHT22;9685;54.338;18.672;2024-01-30T10:11:26;6.20;99.90
19106;DHT22;9685;54.338;18.672;2024-01-30T10:13:53;6.40;99.90
19106;DHT22;9685;54.338;18.672;2024-01-30T10:16:20;6.60;99.90
19106;DHT22;9685;54.338;18.672;2024-01-30T10:18:47;6.70;99.90
19106;DHT22;9685;54.338;18.672;2024-01-30T10:21:14;6.90;99.50
19106;DHT22;9685;54.338;18.672;2024-01-30T10:23:43;7.10;99.40
19106;DHT22;9685;54.338;18.672;2024-01-30T10:26:11;7.30;99.50
19106;DHT22;9685;54.338;18.672;2024-01-30T10:28:38;7.50;97.50
19106;DHT22;9685;54.338;18.672;2024-01-30T10:31:05;7.70;95.60
19106;DHT22;9685;54.338;18.672;2024-01-30T10:33:32;7.70;94.00
19106;DHT22;9685;54.338;18.672;2024-01-30T10:36:01;7.80;94.30
19106;DHT22;9685;54.338;18.672;2024-01-30T10:38:29;7.90;94.00
19106;DHT22;9685;54.338;18.672;2024-01-30T10:40:59;7.90;92.90
19106;DHT22;9685;54.338;18.672;2024-01-30T10:43:31;8.00;94.00
19106;DHT22;9685;54.338;18.672;2024-01-30T10:46:06;8.10;93.30
19106;DHT22;9685;54.338;18.672;2024-01-30T10:48:36;8.20;93.00
19106;DHT22;9685;54.338;18.672;2024-01-30T10:51:09;8.10;92.10
19106;DHT22;9685;54.338;18.672;2024-01-30T10:53:38;8.20;92.50
19106;DHT22;9685;54.338;18.672;2024-01-30T10:56:08;8.30;92.30
19106;DHT22;9685;54.338;18.672;2024-01-30T10:58:37;8.40;92.60
19106;DHT22;9685;54.338;18.672;2024-01-30T11:01:04;8.60;91.50
19106;DHT22;9685;54.338;18.672;2024-01-30T11:03:32;8.70;91.80
19106;DHT22;9685;54.338;18.672;2024-01-30T11:06:02;8.60;91.80
19106;DHT22;9685;54.338;18.672;2024-01-30T11:08:32;8.70;91.70
19106;DHT22;9685;54.338;18.672;2024-01-30T11:10:59;8.80;99.90
19106;DHT22;9685;54.338;18.672;2024-01-30T11:13:31;8.90;90.60
19106;DHT22;9685;54.338;18.672;2024-01-30T11:16:00;8.90;90.70
19106;DHT22;9685;54.338;18.672;2024-01-30T11:18:29;8.90;90.60
19106;DHT22;9685;54.338;18.672;2024-01-30T11:20:57;8.90;90.90
19106;DHT22;9685;54.338;18.672;2024-01-30T11:23:25;9.00;89.70
19106;DHT22;9685;54.338;18.672;2024-01-30T11:25:52;9.10;90.90
19106;DHT22;9685;54.338;18.672;2024-01-30T11:28:21;9.20;90.00
19106;DHT22;9685;54.338;18.672;2024-01-30T11:30:50;9.30;89.70
19106;DHT22;9685;54.338;18.672;2024-01-30T11:33:29;9.40;86.80
19106;DHT22;9685;54.338;18.672;2024-01-30T11:35:58;9.50;90.20
19106;DHT22;9685;54.338;18.672;2024-01-30T11:38:26;9.60;90.10
19106;DHT22;9685;54.338;18.672;2024-01-30T11:40:55;9.70;88.80
19106;DHT22;9685;54.338;18.672;2024-01-30T11:43:22;9.70;88.40
19106;DHT22;9685;54.338;18.672;2024-01-30T11:45:51;9.80;86.40
19106;DHT22;9685;54.338;18.672;2024-01-30T11:48:18;9.90;87.30
19106;DHT22;9685;54.338;18.672;2024-01-30T11:50:45;10.10;87.40
19106;DHT22;9685;54.338;18.672;2024-01-30T11:53:13;10.30;86.90
19106;DHT22;9685;54.338;18.672;2024-01-30T11:55:40;10.50;85.80
19106;DHT22;9685;54.338;18.672;2024-01-30T11:58:06;10.70;87.40
19106;DHT22;9685;54.338;18.672;2024-01-30T12:00:34;10.90;86.30
19106;DHT22;9685;54.338;18.672;2024-01-30T12:03:03;10.90;85.90
19106;DHT22;9685;54.338;18.672;2024-01-30T12:05:32;10.80;85.80
19106;DHT22;9685;54.338;18.672;2024-01-30T12:07:58;10.60;83.30
19106;DHT22;9685;54.338;18.672;2024-01-30T12:10:25;10.60;83.90
19106;DHT22;9685;54.338;18.672;2024-01-30T12:12:54;10.70;83.80
19106;DHT22;9685;54.338;18.672;2024-01-30T12:15:22;10.70;83.60
19106;DHT22;9685;54.338;18.672;2024-01-30T12:17:49;10.70;83.40
19106;DHT22;9685;54.338;18.672;2024-01-30T12:20:19;10.70;81.60
19106;DHT22;9685;54.338;18.672;2024-01-30T12:22:47;10.90;83.60
19106;DHT22;9685;54.338;18.672;2024-01-30T12:25:15;11.00;85.00
19106;DHT22;9685;54.338;18.672;2024-01-30T12:27:43;11.10;84.60
19106;DHT22;9685;54.338;18.672;2024-01-30T12:30:12;11.30;84.40
19106;DHT22;9685;54.338;18.672;2024-01-30T12:32:40;11.50;87.90
19106;DHT22;9685;54.338;18.672;2024-01-30T12:35:09;11.60;85.20
19106;DHT22;9685;54.338;18.672;2024-01-30T12:37:37;11.80;84.10
19106;DHT22;9685;54.338;18.672;2024-01-30T12:40:05;11.80;82.60
19106;DHT22;9685;54.338;18.672;2024-01-30T12:42:33;11.90;83.40
19106;DHT22;9685;54.338;18.672;2024-01-30T12:45:02;12.00;82.10
19106;DHT22;9685;54.338;18.672;2024-01-30T12:47:29;11.90;80.80
19106;DHT22;9685;54.338;18.672;2024-01-30T12:49:55;11.80;80.10
19106;DHT22;9685;54.338;18.672;2024-01-30T12:52:23;11.70;79.60
19106;DHT22;9685;54.338;18.672;2024-01-30T12:54:51;11.60;79.10
19106;DHT22;9685;54.338;18.672;2024-01-30T12:57:18;11.70;79.30
19106;DHT22;9685;54.338;18.672;2024-01-30T12:59:46;11.70;78.40
19106;DHT22;9685;54.338;18.672;2024-01-30T13:02:13;11.70;79.00
19106;DHT22;9685;54.338;18.672;2024-01-30T13:04:42;11.60;78.30
19106;DHT22;9685;54.338;18.672;2024-01-30T13:07:09;11.60;78.60
19106;DHT22;9685;54.338;18.672;2024-01-30T13:09:36;11.50;77.60
19106;DHT22;9685;54.338;18.672;2024-01-30T13:12:05;11.40;76.90
19106;DHT22;9685;54.338;18.672;2024-01-30T13:14:32;11.40;77.70
19106;DHT22;9685;54.338;18.672;2024-01-30T13:16:59;11.30;76.70
19106;DHT22;9685;54.338;18.672;2024-01-30T13:19:26;11.30;77.00
19106;DHT22;9685;54.338;18.672;2024-01-30T13:21:53;11.20;75.30
19106;DHT22;9685;54.338;18.672;2024-01-30T13:24:20;11.00;75.30
19106;DHT22;9685;54.338;18.672;2024-01-30T13:26:48;11.00;75.00
19106;DHT22;9685;54.338;18.672;2024-01-30T13:29:17;10.70;73.80
19106;DHT22;9685;54.338;18.672;2024-01-30T13:31:44;10.50;74.40
19106;DHT22;9685;54.338;18.672;2024-01-30T13:34:12;10.40;72.80
19106;DHT22;9685;54.338;18.672;2024-01-30T13:36:40;10.30;73.20
19106;DHT22;9685;54.338;18.672;2024-01-30T13:39:07;10.10;72.50
19106;DHT22;9685;54.338;18.672;2024-01-30T13:41:35;9.90;72.00
19106;DHT22;9685;54.338;18.672;2024-01-30T13:44:02;9.70;71.50
19106;DHT22;9685;54.338;18.672;2024-01-30T13:46:30;9.60;68.20
19106;DHT22;9685;54.338;18.672;2024-01-30T13:48:57;9.60;71.20
19106;DHT22;9685;54.338;18.672;2024-01-30T13:51:24;9.50;71.50
19106;DHT22;9685;54.338;18.672;2024-01-30T13:53:51;9.30;71.60
19106;DHT22;9685;54.338;18.672;2024-01-30T13:56:18;9.30;71.90
19106;DHT22;9685;54.338;18.672;2024-01-30T13:58:45;9.20;74.20
19106;DHT22;9685;54.338;18.672;2024-01-30T14:01:12;9.10;73.60
19106;DHT22;9685;54.338;18.672;2024-01-30T14:03:41;9.00;71.90
19106;DHT22;9685;54.338;18.672;2024-01-30T14:06:07;8.90;73.30
19106;DHT22;9685;54.338;18.672;2024-01-30T14:08:37;8.90;74.00
19106;DHT22;9685;54.338;18.672;2024-01-30T14:11:04;8.80;74.10
19106;DHT22;9685;54.338;18.672;2024-01-30T14:13:32;8.70;74.70
19106;DHT22;9685;54.338;18.672;2024-01-30T14:15:59;8.60;73.00
19106;DHT22;9685;54.338;18.672;2024-01-30T14:18:26;8.60;74.70
19106;DHT22;9685;54.338;18.672;2024-01-30T14:20:54;8.50;73.40
19106;DHT22;9685;54.338;18.672;2024-01-30T14:23:21;8.40;73.70
19106;DHT22;9685;54.338;18.672;2024-01-30T14:25:48;8.30;73.30
19106;DHT22;9685;54.338;18.672;2024-01-30T14:28:17;8.30;73.80
19106;DHT22;9685;54.338;18.672;2024-01-30T14:30:44;8.30;73.60
19106;DHT22;9685;54.338;18.672;2024-01-30T14:33:11;8.30;73.50
19106;DHT22;9685;54.338;18.672;2024-01-30T14:35:38;8.30;75.30
19106;DHT22;9685;54.338;18.672;2024-01-30T14:38:07;8.20;74.40
19106;DHT22;9685;54.338;18.672;2024-01-30T14:40:35;8.10;74.30
19106;DHT22;9685;54.338;18.672;2024-01-30T14:43:02;8.10;74.30
19106;DHT22;9685;54.338;18.672;2024-01-30T14:45:29;8.00;74.20
19106;DHT22;9685;54.338;18.672;2024-01-30T14:47:57;7.90;74.10
19106;DHT22;9685;54.338;18.672;2024-01-30T14:50:25;7.90;74.20
19106;DHT22;9685;54.338;18.672;2024-01-30T14:52:52;7.80;73.70
19106;DHT22;9685;54.338;18.672;2024-01-30T14:55:20;7.70;74.90
19106;DHT22;9685;54.338;18.672;2024-01-30T14:57:47;7.60;74.60
19106;DHT22;9685;54.338;18.672;2024-01-30T15:00:15;7.60;75.80
19106;DHT22;9685;54.338;18.672;2024-01-30T15:02:44;7.50;77.90
19106;DHT22;9685;54.338;18.672;2024-01-30T15:05:12;7.40;75.60
19106;DHT22;9685;54.338;18.672;2024-01-30T15:07:39;7.30;74.70
19106;DHT22;9685;54.338;18.672;2024-01-30T15:10:07;7.30;77.70
19106;DHT22;9685;54.338;18.672;2024-01-30T15:12:36;7.20;78.70
19106;DHT22;9685;54.338;18.672;2024-01-30T15:15:04;7.10;78.70
19106;DHT22;9685;54.338;18.672;2024-01-30T15:17:31;7.00;79.90
19106;DHT22;9685;54.338;18.672;2024-01-30T15:19:58;6.90;79.10
19106;DHT22;9685;54.338;18.672;2024-01-30T15:22:26;6.80;79.40
19106;DHT22;9685;54.338;18.672;2024-01-30T15:24:53;6.80;82.90
19106;DHT22;9685;54.338;18.672;2024-01-30T15:27:20;6.60;81.40
19106;DHT22;9685;54.338;18.672;2024-01-30T15:29:48;6.60;82.40
19106;DHT22;9685;54.338;18.672;2024-01-30T15:32:15;6.50;83.60
19106;DHT22;9685;54.338;18.672;2024-01-30T15:34:42;6.50;84.30
19106;DHT22;9685;54.338;18.672;2024-01-30T15:37:09;6.40;84.70
19106;DHT22;9685;54.338;18.672;2024-01-30T15:39:36;6.30;86.00
19106;DHT22;9685;54.338;18.672;2024-01-30T15:42:04;6.30;86.90
19106;DHT22;9685;54.338;18.672;2024-01-30T15:44:31;6.20;89.20
19106;DHT22;9685;54.338;18.672;2024-01-30T15:46:59;6.20;87.80
19106;DHT22;9685;54.338;18.672;2024-01-30T15:49:26;6.20;89.70
19106;DHT22;9685;54.338;18.672;2024-01-30T15:51:53;6.10;89.10